Meteo Giornale » Osservazioni meteo Italia » Falconara

ore: 00:50 - Osservazioni Meteo Falconara
Lat. 43° 37' N Lon. 13° 22' E Alt. 12 metri s.l.m.

poco_nuvoloso Europe/Rome

15 °C

Poco Nuvoloso

Temp. 24 Ore

8 °C

21 °C

Nord

5.5 Km/h

Dew point 12 °C

Umidità 82 %

Visibilità  10 Km

Il sole sorge alle ore 06:02

Il sole tramonta alle ore 20:05

Data e Ora Cielo e Fenomeni T °C DP °C Um. % Pres. hPa Vis. km Vento km/h
Oggi h: 00:50 poco_nuvoloso Poco Nuvoloso 15 12 82 1009 10 N 5.5
Ieri h: 23:50 poco_nuvoloso Poco Nuvoloso 14 12 87 1009 10 N 0
Ieri h: 22:50 poco_nuvoloso Poco Nuvoloso 13 11 87 1009 10 N 1.8
Ieri h: 21:50 poco_nuvoloso Poco Nuvoloso 14 11 82 1010 10 N 3.7
Ieri h: 20:50 poco_nuvoloso Poco Nuvoloso 15 12 82 1009 10 N 1.8
Ieri h: 19:50 nuvoloso Nuvoloso 17 12 72 1009 10 N 5.5
Ieri h: 18:50 nuvoloso Nuvoloso 18 11 63 1009 10 N 5.5
Ieri h: 17:50 molto_nuvoloso Molto Nuvoloso 18 12 67 1009 10 N 5.5
Ieri h: 16:50 coperto_pioggia Pioggia Debole 19 12 63 1008 10 SE 13
Ieri h: 15:50 nuvoloso Nuvoloso 19 10 55 1010 10 E/SE 9.3
Ieri h: 14:50 molto_nuvoloso Molto Nuvoloso 19 10 55 1010 10 E/SE 11.1
Ieri h: 13:50 molto_nuvoloso Molto Nuvoloso 19 9 52 1009 10 E/SE 13
Ieri h: 12:50 poco_nuvoloso Poco Nuvoloso 20 8 45 1009 10 E 13
Ieri h: 11:50 poco_nuvoloso Poco Nuvoloso 21 8 43 1010 10 E/SE 11.1
Ieri h: 09:50 poco_nuvoloso Poco Nuvoloso 18 11 63 1010 10 SE 11.1
Ieri h: 08:50 nuvoloso Nuvoloso 17 11 67 1011 10 SE 11.1
Ieri h: 07:50 nuvoloso Nuvoloso 16 10 67 1011 10 E/SE 9.3
Ieri h: 06:50 sereno Sereno 12 8 76 1011 10 N 1.8
Ieri h: 05:50 sereno Sereno 8 7 93 1010 10 N 3.7
Ieri h: 04:50 sereno Sereno 9 8 93 1011 10 N 3.7
Ieri h: 03:50 sereno Sereno 9 7 87 1011 10 N 3.7
Ieri h: 02:50 sereno Sereno 11 8 81 1011 10 N 5.5
Ieri h: 01:50 sereno Sereno 11 9 87 1012 10 O/SO 7.4